Time;durP1;ratioP1;P1;durP2;ratioP2;P2;SDS_P1;SDS_P2;PMS_P1;PMS_P2;Temp;Humidity;BMP_temperature;BMP_pressure;BME280_temperature;BME280_humidity;BME280_pressure;Samples;Min_cycle;Max_cycle;Signal;HPM_P1;HPM_P2
2024/02/02 00:00:07;;;;;;;0.98;0.52;;;5.00;1.00;;;;;;4983520;28;20042;-77
2024/02/02 00:02:37;;;;;;;1.48;0.85;;;5.00;1.00;;;;;;4999568;28;20387;-77
2024/02/02 00:05:05;;;;;;;1.73;0.90;;;5.00;1.00;;;;;;4999616;28;20602;-77
2024/02/02 00:07:32;;;;;;;1.10;0.47;;;5.00;1.00;;;;;;4981956;28;20084;-77
2024/02/02 00:09:59;;;;;;;1.83;0.68;;;5.00;1.00;;;;;;4999613;28;20050;-77
2024/02/02 00:12:26;;;;;;;1.02;0.70;;;5.00;1.00;;;;;;4983254;28;20065;-77
2024/02/02 00:14:54;;;;;;;1.38;0.70;;;5.00;1.00;;;;;;4983068;28;20050;-77
2024/02/02 00:17:21;;;;;;;0.90;0.80;;;5.00;1.00;;;;;;4983281;28;20073;-76
2024/02/02 00:19:48;;;;;;;0.52;0.40;;;4.90;1.00;;;;;;4966778;28;20045;-77
2024/02/02 00:22:20;;;;;;;1.27;0.63;;;4.90;1.00;;;;;;4966072;28;20136;-77
2024/02/02 00:24:47;;;;;;;0.80;0.50;;;4.90;1.00;;;;;;4999246;28;20530;-77
2024/02/02 00:27:14;;;;;;;0.75;0.57;;;4.90;1.00;;;;;;4964403;28;20066;-77
2024/02/02 00:29:45;;;;;;;1.17;0.60;;;4.90;1.00;;;;;;4967216;28;20077;-77
2024/02/02 00:32:13;;;;;;;0.55;0.50;;;4.80;1.00;;;;;;4983212;28;20137;-76
2024/02/02 00:34:40;;;;;;;1.00;0.50;;;4.80;1.00;;;;;;4983177;28;20120;-77
2024/02/02 00:37:08;;;;;;;0.65;0.40;;;4.80;1.00;;;;;;4952402;28;20100;-77
2024/02/02 00:39:35;;;;;;;1.80;0.80;;;4.80;1.00;;;;;;4969878;28;20046;-77
2024/02/02 00:42:02;;;;;;;1.17;0.68;;;4.80;1.00;;;;;;4970828;28;20049;-77
2024/02/02 00:44:29;;;;;;;2.90;0.95;;;4.90;1.00;;;;;;4954303;28;20054;-77
2024/02/02 00:46:56;;;;;;;1.60;0.57;;;4.90;1.00;;;;;;4970261;28;20054;-77
2024/02/02 00:49:24;;;;;;;3.00;1.15;;;4.90;1.00;;;;;;4986914;28;20776;-77
2024/02/02 00:51:51;;;;;;;2.30;1.10;;;5.00;1.00;;;;;;5003195;28;20057;-77
2024/02/02 00:54:18;;;;;;;6.07;1.27;;;5.00;1.00;;;;;;4969712;28;20057;-77
2024/02/02 00:56:46;;;;;;;2.15;0.93;;;5.10;1.00;;;;;;4986710;28;20139;-76
2024/02/02 00:59:13;;;;;;;1.85;1.00;;;5.10;1.00;;;;;;4986715;28;20054;-77
2024/02/02 01:01:40;;;;;;;1.60;1.10;;;5.10;1.00;;;;;;4970994;28;20478;-77
2024/02/02 01:04:07;;;;;;;3.22;0.95;;;5.10;1.00;;;;;;4969886;28;20219;-77
2024/02/02 01:06:34;;;;;;;1.90;1.25;;;5.10;1.00;;;;;;4954237;28;20062;-77
2024/02/02 01:09:02;;;;;;;1.63;0.75;;;5.10;1.00;;;;;;4968884;28;20108;-77
2024/02/02 01:11:29;;;;;;;2.40;1.13;;;5.20;1.00;;;;;;4970177;28;20068;-77
2024/02/02 01:13:56;;;;;;;2.95;1.00;;;5.10;1.00;;;;;;4969635;28;20061;-77
2024/02/02 01:16:24;;;;;;;1.55;0.88;;;5.20;1.00;;;;;;4969562;28;20319;-77
2024/02/02 01:18:51;;;;;;;2.65;1.05;;;5.20;1.00;;;;;;5003887;28;20050;-77
2024/02/02 01:21:19;;;;;;;2.72;1.08;;;5.20;1.00;;;;;;4986102;28;20487;-77
2024/02/02 01:23:46;;;;;;;2.67;1.08;;;5.20;1.00;;;;;;4984365;28;20077;-77
2024/02/02 01:26:13;;;;;;;2.28;0.80;;;5.30;1.00;;;;;;4969534;28;20116;-77
2024/02/02 01:28:41;;;;;;;1.15;0.73;;;5.20;1.00;;;;;;4969589;28;20054;-76
2024/02/02 01:31:08;;;;;;;2.47;0.77;;;5.20;1.00;;;;;;4969706;28;20057;-77
2024/02/02 01:33:36;;;;;;;1.23;0.70;;;5.30;1.00;;;;;;4985124;28;20104;-77
2024/02/02 01:36:04;;;;;;;2.10;0.80;;;5.20;1.00;;;;;;5003526;28;20049;-77
2024/02/02 01:38:32;;;;;;;1.10;0.68;;;5.20;1.00;;;;;;4984489;28;20534;-77
2024/02/02 01:40:59;;;;;;;1.45;0.75;;;5.20;1.00;;;;;;4985486;28;20141;-77
2024/02/02 01:43:27;;;;;;;1.40;0.70;;;5.20;1.00;;;;;;4985461;28;20068;-78
2024/02/02 01:45:54;;;;;;;1.42;0.73;;;5.20;1.00;;;;;;4970015;28;20046;-77
2024/02/02 01:48:21;;;;;;;1.30;0.80;;;5.20;1.00;;;;;;4968282;28;20057;-76
2024/02/02 01:50:48;;;;;;;2.58;0.88;;;5.20;5.50;;;;;;5003134;28;20089;-77
2024/02/02 01:53:15;;;;;;;1.42;0.68;;;5.20;9.40;;;;;;4967568;28;20467;-77
2024/02/02 01:55:42;;;;;;;1.52;0.88;;;5.20;15.20;;;;;;4952878;28;20078;-76
2024/02/02 01:58:09;;;;;;;2.58;0.80;;;5.20;20.50;;;;;;4969566;28;20050;-77
2024/02/02 02:00:37;;;;;;;1.85;0.90;;;5.30;31.60;;;;;;4952995;28;20656;-77
2024/02/02 02:03:04;;;;;;;1.33;0.70;;;5.30;34.40;;;;;;4984967;28;20169;-77
2024/02/02 02:05:31;;;;;;;2.33;1.00;;;5.40;38.70;;;;;;4969486;28;20053;-77
2024/02/02 02:07:59;;;;;;;1.65;0.70;;;5.40;41.40;;;;;;4967899;28;20116;-76
2024/02/02 02:10:26;;;;;;;2.30;0.93;;;5.40;42.60;;;;;;4969716;28;20054;-76
2024/02/02 02:12:53;;;;;;;3.53;0.80;;;5.50;45.50;;;;;;4952907;28;20153;-77
2024/02/02 02:15:21;;;;;;;1.98;0.85;;;5.50;44.10;;;;;;4985418;28;20324;-77
2024/02/02 02:17:51;;;;;;;2.85;1.10;;;5.50;46.00;;;;;;4968451;28;20065;-76
2024/02/02 02:20:22;;;;;;;5.13;1.73;;;5.50;48.00;;;;;;4985779;28;20084;-76
2024/02/02 02:22:53;;;;;;;2.42;0.98;;;5.60;51.80;;;;;;4967598;28;20139;-76
2024/02/02 02:25:20;;;;;;;2.55;1.23;;;5.60;59.30;;;;;;4953552;28;20535;-76
2024/02/02 02:27:47;;;;;;;3.15;1.25;;;5.60;71.00;;;;;;4984767;28;20080;-76
2024/02/02 02:30:14;;;;;;;3.30;1.15;;;5.60;75.00;;;;;;4951297;28;20112;-77
2024/02/02 02:32:41;;;;;;;4.28;1.17;;;5.60;79.90;;;;;;4986019;28;20072;-76
2024/02/02 02:35:08;;;;;;;5.25;1.65;;;5.60;82.80;;;;;;4972491;28;20067;-77
2024/02/02 02:37:35;;;;;;;4.90;1.65;;;5.70;87.10;;;;;;4969879;28;20057;-76
2024/02/02 02:40:03;;;;;;;1.40;0.75;;;5.70;94.30;;;;;;4972097;28;20053;-76
2024/02/02 02:42:30;;;;;;;2.53;1.20;;;5.70;98.10;;;;;;4972155;28;20046;-77
2024/02/02 02:44:57;;;;;;;2.78;1.20;;;5.80;99.90;;;;;;4956915;28;20108;-76
2024/02/02 02:47:24;;;;;;;3.95;1.45;;;5.80;99.90;;;;;;4972041;28;20184;-77
2024/02/02 02:49:51;;;;;;;4.25;1.30;;;5.90;99.90;;;;;;4988449;28;20065;-76
2024/02/02 02:52:18;;;;;;;2.97;1.30;;;5.90;99.90;;;;;;4986651;28;20133;-76
2024/02/02 02:54:45;;;;;;;5.82;1.70;;;6.00;99.90;;;;;;5005652;28;20104;-76
2024/02/02 02:57:12;;;;;;;4.25;1.38;;;6.10;99.90;;;;;;4971959;28;20157;-77
2024/02/02 02:59:39;;;;;;;2.88;1.05;;;6.10;99.90;;;;;;4971272;28;20057;-77
2024/02/02 03:02:06;;;;;;;2.78;1.38;;;6.20;99.90;;;;;;4955572;28;20064;-77
2024/02/02 03:04:33;;;;;;;4.43;1.60;;;6.20;99.90;;;;;;4987435;28;20046;-76
2024/02/02 03:07:01;;;;;;;2.22;0.95;;;6.20;99.90;;;;;;4986823;28;20054;-76
2024/02/02 03:09:29;;;;;;;2.70;1.20;;;6.30;1.00;;;;;;4955456;28;20057;-76
2024/02/02 03:11:57;;;;;;;2.78;1.10;;;6.30;1.00;;;;;;5004992;28;20050;-77
2024/02/02 03:14:24;;;;;;;3.47;1.60;;;6.30;59.80;;;;;;4971562;28;20487;-76
2024/02/02 03:16:51;;;;;;;2.55;1.10;;;6.40;99.90;;;;;;5004915;28;20500;-77
2024/02/02 03:19:18;;;;;;;4.00;1.15;;;6.40;99.90;;;;;;5005364;28;20104;-76
2024/02/02 03:21:45;;;;;;;2.55;1.00;;;6.50;99.90;;;;;;4971303;28;20125;-77
2024/02/02 03:24:12;;;;;;;3.15;0.93;;;6.50;99.90;;;;;;4970587;28;20045;-77
2024/02/02 03:26:39;;;;;;;3.05;0.80;;;6.50;99.90;;;;;;4987852;28;20049;-77
2024/02/02 03:29:06;;;;;;;1.95;1.02;;;6.50;99.90;;;;;;4988146;28;20668;-77
2024/02/02 03:31:33;;;;;;;2.20;0.90;;;6.60;99.90;;;;;;5004982;28;20081;-76
2024/02/02 03:34:00;;;;;;;1.35;0.80;;;6.60;99.90;;;;;;5004908;28;20046;-77
2024/02/02 03:36:27;;;;;;;2.25;1.48;;;6.60;99.90;;;;;;5002709;28;20050;-77
2024/02/02 03:38:54;;;;;;;2.85;0.80;;;6.60;1.00;;;;;;4984115;28;20148;-77
2024/02/02 03:41:21;;;;;;;4.68;1.15;;;6.70;1.00;;;;;;4959047;28;20570;-77
2024/02/02 03:43:49;;;;;;;0.93;0.70;;;6.70;1.00;;;;;;4950291;28;20046;-77
2024/02/02 03:46:16;;;;;;;1.35;0.88;;;6.70;1.00;;;;;;4966529;28;20054;-76
2024/02/02 03:48:44;;;;;;;1.50;0.80;;;6.70;1.00;;;;;;4985971;28;20118;-77
2024/02/02 03:51:11;;;;;;;3.03;1.67;;;6.70;1.00;;;;;;4984953;28;20486;-77
2024/02/02 03:53:37;;;;;;;2.00;1.00;;;6.80;1.00;;;;;;4979197;28;20702;-77
2024/02/02 03:56:05;;;;;;;2.80;0.77;;;6.80;1.00;;;;;;4931752;28;20142;-76
2024/02/02 03:58:32;;;;;;;1.73;0.70;;;6.80;1.00;;;;;;5002890;28;20595;-77
2024/02/02 04:00:59;;;;;;;1.88;0.80;;;6.80;1.00;;;;;;4988868;28;20042;-77
2024/02/02 04:03:26;;;;;;;2.13;1.00;;;6.80;1.00;;;;;;4988381;28;20104;-76
2024/02/02 04:05:53;;;;;;;2.40;0.88;;;6.90;1.00;;;;;;4972698;28;20060;-76
2024/02/02 04:08:20;;;;;;;1.45;0.80;;;6.80;1.00;;;;;;4955050;28;20053;-77
2024/02/02 04:10:48;;;;;;;3.53;0.95;;;6.90;15.00;;;;;;4957578;28;20563;-76
2024/02/02 04:13:15;;;;;;;1.45;0.60;;;6.90;24.50;;;;;;5009574;28;20538;-77
2024/02/02 04:15:43;;;;;;;5.82;0.90;;;6.90;61.50;;;;;;4976900;28;20218;-77
2024/02/02 04:18:10;;;;;;;4.00;1.45;;;7.00;97.10;;;;;;4991618;28;20042;-77
2024/02/02 04:20:37;;;;;;;1.13;0.70;;;7.00;99.90;;;;;;4976324;28;20058;-77
2024/02/02 04:23:04;;;;;;;1.90;0.82;;;7.00;99.90;;;;;;4958937;28;20045;-77
2024/02/02 04:25:31;;;;;;;2.75;1.10;;;7.10;99.90;;;;;;4975989;28;20062;-77
2024/02/02 04:27:58;;;;;;;0.80;0.52;;;7.20;99.90;;;;;;4960382;28;20053;-77
2024/02/02 04:30:28;;;;;;;1.60;0.57;;;7.20;99.90;;;;;;4992370;28;20897;-77
2024/02/02 04:32:56;;;;;;;1.30;0.60;;;7.20;99.90;;;;;;4991658;28;20149;-77
2024/02/02 04:35:25;;;;;;;1.55;0.95;;;7.20;99.90;;;;;;4973242;28;20146;-76
2024/02/02 04:37:52;;;;;;;2.15;1.00;;;7.30;99.90;;;;;;4983391;28;20437;-77
2024/02/02 04:40:19;;;;;;;1.10;0.52;;;7.30;99.90;;;;;;4991743;28;20046;-77
2024/02/02 04:42:47;;;;;;;2.10;0.75;;;7.30;99.90;;;;;;4959674;28;20060;-77
2024/02/02 04:45:14;;;;;;;1.67;0.60;;;7.30;99.90;;;;;;4960170;28;20046;-76
2024/02/02 04:47:41;;;;;;;1.67;0.93;;;7.40;99.90;;;;;;4991558;28;20141;-77
2024/02/02 04:50:09;;;;;;;0.55;0.30;;;7.40;99.90;;;;;;4958969;28;20081;-77
2024/02/02 04:52:36;;;;;;;1.02;0.57;;;7.40;99.90;;;;;;4954440;28;20157;-77
2024/02/02 04:55:03;;;;;;;1.58;0.80;;;7.40;99.90;;;;;;4956931;28;20430;-76
2024/02/02 04:57:30;;;;;;;0.80;0.50;;;7.50;99.90;;;;;;4964525;28;20131;-77
2024/02/02 04:59:57;;;;;;;0.93;0.50;;;7.50;99.90;;;;;;4992098;28;20053;-77
2024/02/02 05:02:25;;;;;;;0.73;0.50;;;7.50;99.90;;;;;;4975411;28;20526;-77
2024/02/02 05:04:52;;;;;;;1.63;0.45;;;7.60;99.90;;;;;;4982154;28;20061;-77
2024/02/02 05:07:19;;;;;;;0.90;0.40;;;7.60;99.90;;;;;;4960898;28;20049;-77
2024/02/02 05:09:47;;;;;;;0.50;0.50;;;7.60;99.90;;;;;;4991599;28;20046;-77
2024/02/02 05:12:15;;;;;;;0.52;0.40;;;7.60;99.90;;;;;;4983788;28;20130;-77
2024/02/02 05:14:43;;;;;;;0.60;0.30;;;7.70;99.90;;;;;;4972224;28;20054;-77
2024/02/02 05:17:10;;;;;;;0.70;0.50;;;7.70;99.90;;;;;;4961117;28;20069;-78
2024/02/02 05:19:37;;;;;;;0.35;0.30;;;7.70;99.90;;;;;;4959688;28;20376;-79
2024/02/02 05:22:04;;;;;;;0.50;0.40;;;7.70;99.90;;;;;;4957998;28;20054;-77
2024/02/02 05:24:31;;;;;;;0.20;0.20;;;7.70;99.90;;;;;;4958839;28;20488;-77
2024/02/02 05:27:13;;;;;;;1.00;0.30;;;7.70;99.90;;;;;;4978574;28;20404;-77
2024/02/02 05:29:40;;;;;;;0.32;0.30;;;7.70;1.00;;;;;;5009208;28;20103;-77
2024/02/02 05:32:07;;;;;;;0.57;0.40;;;7.80;77.90;;;;;;4974859;28;20053;-78
2024/02/02 05:34:34;;;;;;;1.17;0.60;;;7.80;99.90;;;;;;4991024;28;20057;-77
2024/02/02 05:37:01;;;;;;;1.30;0.50;;;7.80;99.90;;;;;;4974210;28;20052;-77
2024/02/02 05:39:30;;;;;;;0.45;0.32;;;7.80;99.90;;;;;;4974265;28;20147;-77
2024/02/02 05:41:57;;;;;;;2.05;0.80;;;7.90;99.90;;;;;;4991104;28;20042;-77
2024/02/02 05:44:25;;;;;;;1.10;0.52;;;7.90;99.90;;;;;;4990809;28;20468;-77
2024/02/02 05:46:52;;;;;;;1.65;0.40;;;7.90;1.00;;;;;;4974430;28;20046;-77
2024/02/02 05:49:19;;;;;;;0.95;0.55;;;7.90;1.00;;;;;;4971267;28;20047;-77
2024/02/02 05:51:48;;;;;;;0.45;0.45;;;7.90;1.00;;;;;;4949945;28;20073;-77
2024/02/02 05:54:15;;;;;;;0.32;0.32;;;7.90;31.90;;;;;;4967150;28;20154;-78
2024/02/02 05:56:41;;;;;;;0.95;0.60;;;8.00;88.80;;;;;;4935398;28;20047;-78
2024/02/02 05:59:08;;;;;;;0.75;0.45;;;8.00;99.90;;;;;;4972315;28;20503;-77
2024/02/02 06:01:36;;;;;;;1.33;0.75;;;8.00;99.90;;;;;;4956719;28;20054;-77
2024/02/02 06:04:03;;;;;;;0.93;0.52;;;8.00;99.90;;;;;;4932062;28;20061;-78
2024/02/02 06:06:31;;;;;;;0.63;0.40;;;8.00;99.90;;;;;;4946388;28;20053;-77
2024/02/02 06:08:58;;;;;;;0.80;0.65;;;8.00;99.90;;;;;;5000084;28;20108;-78
2024/02/02 06:11:26;;;;;;;0.70;0.60;;;8.00;99.90;;;;;;4968881;28;20061;-77
2024/02/02 06:13:56;;;;;;;1.15;0.88;;;8.00;99.90;;;;;;4968943;28;20062;-77
2024/02/02 06:16:24;;;;;;;3.42;0.70;;;8.10;99.90;;;;;;4968975;28;20046;-77
2024/02/02 06:18:51;;;;;;;0.85;0.70;;;8.10;99.90;;;;;;4968781;28;20058;-78
2024/02/02 06:21:18;;;;;;;1.23;0.65;;;8.10;99.90;;;;;;4961882;28;20130;-78
2024/02/02 06:23:45;;;;;;;0.70;0.55;;;8.10;1.00;;;;;;4976723;28;20056;-77
2024/02/02 06:26:13;;;;;;;1.13;0.43;;;8.10;1.00;;;;;;4952667;28;20054;-77
2024/02/02 06:28:40;;;;;;;0.50;0.40;;;8.20;1.00;;;;;;4962058;28;20496;-78
2024/02/02 06:31:08;;;;;;;0.50;0.50;;;8.20;1.00;;;;;;4966052;28;20048;-77
2024/02/02 06:33:35;;;;;;;0.85;0.60;;;8.20;1.00;;;;;;4979215;28;20061;-78
2024/02/02 06:36:03;;;;;;;0.73;0.50;;;8.20;28.80;;;;;;4985080;28;20049;-77
2024/02/02 06:38:30;;;;;;;0.43;0.40;;;8.20;21.60;;;;;;4950752;28;20081;-77
2024/02/02 06:40:57;;;;;;;0.73;0.50;;;8.30;35.70;;;;;;4952725;28;20061;-77
2024/02/02 06:43:24;;;;;;;0.43;0.30;;;8.30;23.30;;;;;;4954417;28;20435;-77
2024/02/02 06:45:51;;;;;;;0.60;0.52;;;8.30;29.70;;;;;;4971942;28;20111;-77
2024/02/02 06:48:18;;;;;;;0.55;0.40;;;8.30;1.00;;;;;;4968103;28;20108;-77
2024/02/02 06:50:45;;;;;;;0.63;0.43;;;8.30;1.00;;;;;;4968067;28;20046;-77
2024/02/02 06:53:13;;;;;;;0.52;0.40;;;8.30;1.00;;;;;;4961663;28;20137;-77
2024/02/02 06:55:40;;;;;;;0.73;0.43;;;8.30;1.00;;;;;;4971409;28;20045;-77
2024/02/02 06:58:34;;;;;;;0.85;0.55;;;8.30;1.00;;;;;;4953219;28;20135;-77
2024/02/02 07:01:02;;;;;;;0.90;0.50;;;8.30;67.00;;;;;;4967607;28;20046;-78
2024/02/02 07:03:32;;;;;;;1.60;0.60;;;8.30;99.90;;;;;;4945112;28;20054;-77
2024/02/02 07:06:00;;;;;;;0.75;0.60;;;8.40;99.90;;;;;;4945560;28;20043;-78
2024/02/02 07:08:27;;;;;;;1.35;1.00;;;8.40;99.90;;;;;;4971191;28;20053;-77
2024/02/02 07:11:12;;;;;;;0.82;0.60;;;8.40;99.90;;;;;;4967045;28;20077;-77
2024/02/02 07:13:51;;;;;;;1.35;0.68;;;8.40;99.90;;;;;;4984092;28;20045;-77
2024/02/02 07:16:28;;;;;;;1.10;0.60;;;8.50;99.90;;;;;;4968828;28;20566;-77
2024/02/02 07:18:55;;;;;;;0.95;0.57;;;8.40;99.90;;;;;;4970614;28;20045;-78
2024/02/02 07:21:35;;;;;;;0.98;0.68;;;8.50;1.00;;;;;;4955227;28;20160;-77
2024/02/02 07:24:02;;;;;;;1.00;0.80;;;8.50;1.00;;;;;;4953930;28;20116;-77
2024/02/02 07:26:33;;;;;;;0.70;0.60;;;8.50;38.90;;;;;;4953658;28;20492;-77
2024/02/02 07:29:03;;;;;;;2.15;1.02;;;8.50;54.10;;;;;;4967018;28;20068;-77
2024/02/02 07:31:37;;;;;;;0.93;0.73;;;8.60;71.00;;;;;;4983977;28;20111;-77
2024/02/02 07:34:29;;;;;;;1.25;0.90;;;8.60;45.60;;;;;;4967116;28;20064;-78
2024/02/02 07:36:56;;;;;;;1.42;0.70;;;8.60;72.70;;;;;;4983925;28;20053;-78
2024/02/02 07:39:28;;;;;;;0.80;0.68;;;8.60;65.90;;;;;;4986382;28;20389;-77
2024/02/02 07:41:55;;;;;;;1.13;0.77;;;8.70;32.60;;;;;;4954249;28;20500;-77
2024/02/02 07:44:22;;;;;;;1.30;0.65;;;8.70;53.90;;;;;;4986993;28;20111;-78
2024/02/02 07:46:49;;;;;;;1.20;0.55;;;8.70;29.20;;;;;;4970299;28;20061;-78
2024/02/02 07:49:18;;;;;;;0.85;0.70;;;8.70;25.90;;;;;;4954880;28;20072;-78
2024/02/02 07:51:45;;;;;;;0.95;0.50;;;8.70;44.00;;;;;;4954736;28;20064;-78
2024/02/02 07:54:12;;;;;;;1.17;0.80;;;8.80;55.80;;;;;;4969485;28;20045;-78
2024/02/02 07:56:40;;;;;;;0.93;0.52;;;8.80;35.30;;;;;;4986530;28;20053;-77
2024/02/02 07:59:07;;;;;;;0.40;0.40;;;8.80;15.30;;;;;;4970626;28;20124;-78
2024/02/02 08:01:35;;;;;;;1.58;0.57;;;8.80;1.00;;;;;;4954364;28;20056;-78
2024/02/02 08:04:02;;;;;;;1.60;0.90;;;8.90;1.00;;;;;;4986338;28;20054;-77
2024/02/02 08:06:30;;;;;;;1.80;0.80;;;8.80;1.00;;;;;;4970515;28;20073;-77
2024/02/02 08:08:57;;;;;;;0.70;0.52;;;8.90;1.00;;;;;;4952861;28;20054;-77
2024/02/02 08:11:28;;;;;;;0.95;0.60;;;8.90;6.80;;;;;;4985162;28;20275;-78
2024/02/02 08:13:55;;;;;;;1.75;0.98;;;8.90;4.70;;;;;;4967443;28;20137;-78
2024/02/02 08:16:22;;;;;;;1.30;0.80;;;9.00;1.00;;;;;;4968687;28;20134;-78
2024/02/02 08:18:50;;;;;;;1.17;0.70;;;9.00;1.00;;;;;;4985382;28;20054;-77
2024/02/02 08:21:19;;;;;;;0.95;0.60;;;9.00;1.00;;;;;;4966752;28;20051;-80
2024/02/02 08:23:47;;;;;;;0.98;0.65;;;9.10;99.90;;;;;;4991567;28;20185;-81
2024/02/02 08:26:15;;;;;;;1.75;0.82;;;9.10;99.90;;;;;;4985984;28;20073;-81
2024/02/02 08:28:43;;;;;;;0.88;0.50;;;9.10;99.90;;;;;;4976201;28;20120;-81
2024/02/02 08:31:21;;;;;;;0.60;0.50;;;9.20;99.90;;;;;;4987403;28;20050;-81
2024/02/02 08:33:51;;;;;;;1.15;0.70;;;9.30;58.20;;;;;;4984704;28;20517;-81
2024/02/02 08:36:19;;;;;;;1.35;0.77;;;9.30;99.90;;;;;;4985992;28;20289;-81
2024/02/02 08:38:49;;;;;;;1.30;0.70;;;9.40;99.90;;;;;;4951933;28;20077;-81
2024/02/02 08:41:16;;;;;;;1.05;0.68;;;9.40;99.90;;;;;;4969953;28;20053;-81
2024/02/02 08:43:45;;;;;;;0.93;0.70;;;9.50;1.00;;;;;;4969476;28;20870;-81
2024/02/02 08:46:13;;;;;;;1.00;0.70;;;9.50;99.90;;;;;;4953623;28;20064;-81
2024/02/02 08:48:41;;;;;;;0.73;0.70;;;9.60;99.90;;;;;;4953318;28;20062;-80
2024/02/02 08:51:33;;;;;;;0.55;0.50;;;9.60;99.90;;;;;;4985401;28;20796;-81
2024/02/02 08:54:14;;;;;;;1.08;0.70;;;9.70;1.00;;;;;;4985039;28;20085;-81
2024/02/02 08:56:42;;;;;;;1.63;1.00;;;9.80;99.90;;;;;;4986954;28;20046;-81
2024/02/02 08:59:32;;;;;;;1.55;0.93;;;9.80;99.90;;;;;;4956615;28;20523;-81
2024/02/02 09:01:59;;;;;;;5.07;1.17;;;9.90;99.90;;;;;;4958037;28;20828;-81
2024/02/02 09:04:49;;;;;;;0.85;0.68;;;10.00;99.90;;;;;;4972815;28;20211;-81
2024/02/02 09:07:16;;;;;;;1.02;0.60;;;10.00;1.00;;;;;;4988091;28;20104;-81
2024/02/02 09:09:43;;;;;;;1.48;0.80;;;10.00;1.00;;;;;;4956323;28;20065;-81
2024/02/02 09:12:10;;;;;;;1.42;0.80;;;10.00;1.00;;;;;;4954392;28;20045;-81
2024/02/02 09:14:38;;;;;;;1.15;0.77;;;10.10;1.00;;;;;;4953700;28;20053;-80
2024/02/02 09:17:05;;;;;;;1.27;1.08;;;10.00;99.90;;;;;;4954297;28;20129;-81
2024/02/02 09:19:42;;;;;;;1.63;0.95;;;10.10;99.90;;;;;;4956838;28;20058;-81
2024/02/02 09:22:15;;;;;;;0.95;0.70;;;10.10;1.00;;;;;;4957087;28;20677;-81
2024/02/02 09:24:53;;;;;;;0.98;0.70;;;10.10;1.00;;;;;;4970361;28;20252;-82
2024/02/02 09:27:32;;;;;;;0.70;0.63;;;10.10;1.00;;;;;;4970366;28;20511;-81
2024/02/02 09:30:00;;;;;;;1.17;0.80;;;10.10;99.90;;;;;;4988505;28;20046;-81
2024/02/02 09:32:28;;;;;;;0.90;0.80;;;10.10;99.90;;;;;;4972141;28;20554;-82
2024/02/02 09:34:58;;;;;;;1.10;0.80;;;10.10;1.00;;;;;;5004720;28;20065;-80
2024/02/02 09:37:28;;;;;;;1.35;0.80;;;10.20;1.00;;;;;;4952094;28;20057;-81
2024/02/02 09:39:57;;;;;;;1.33;0.63;;;10.20;99.90;;;;;;4954627;28;20468;-81
2024/02/02 09:42:27;;;;;;;1.20;0.90;;;10.20;1.00;;;;;;4988115;28;20496;-80
2024/02/02 09:44:58;;;;;;;0.70;0.50;;;10.20;1.00;;;;;;4988378;28;20129;-81
2024/02/02 09:47:28;;;;;;;0.77;0.47;;;10.20;1.00;;;;;;4987277;28;20050;-80
2024/02/02 09:50:04;;;;;;;0.40;0.38;;;10.20;1.00;;;;;;5002360;28;20116;-79
2024/02/02 09:52:53;;;;;;;0.65;0.47;;;10.20;1.00;;;;;;4966361;28;20049;-80
2024/02/02 09:55:30;;;;;;;0.93;0.50;;;10.30;1.00;;;;;;4984711;28;20054;-81
2024/02/02 09:58:26;;;;;;;0.70;0.50;;;10.30;1.00;;;;;;4969065;28;20077;-81
2024/02/02 10:01:11;;;;;;;0.98;0.60;;;10.30;8.30;;;;;;5002205;28;20139;-81
2024/02/02 10:03:50;;;;;;;0.98;0.68;;;10.30;1.00;;;;;;5002781;28;20143;-80
2024/02/02 10:06:44;;;;;;;0.60;0.52;;;10.30;1.00;;;;;;5004810;28;20065;-81
2024/02/02 10:09:26;;;;;;;0.45;0.45;;;10.40;1.00;;;;;;4969724;28;20566;-81
2024/02/02 10:12:02;;;;;;;0.32;0.30;;;10.40;1.00;;;;;;4987829;28;20064;-81
2024/02/02 10:14:36;;;;;;;0.50;0.50;;;10.40;1.00;;;;;;5005184;28;20056;-81
2024/02/02 10:17:13;;;;;;;0.68;0.60;;;10.50;1.00;;;;;;4987797;28;20530;-81
2024/02/02 10:19:58;;;;;;;0.35;0.35;;;10.50;1.00;;;;;;4971696;28;20204;-81
2024/02/02 10:22:47;;;;;;;0.85;0.40;;;10.50;1.00;;;;;;5003230;28;20125;-80
2024/02/02 10:25:33;;;;;;;0.88;0.60;;;10.50;1.00;;;;;;4983981;28;20491;-81
2024/02/02 10:28:18;;;;;;;0.73;0.57;;;10.60;99.90;;;;;;4984003;28;20046;-80
2024/02/02 10:30:54;;;;;;;0.63;0.50;;;10.70;99.90;;;;;;4987138;28;20053;-80
2024/02/02 10:33:34;;;;;;;0.77;0.50;;;10.70;99.90;;;;;;4986990;28;20558;-80
2024/02/02 10:36:23;;;;;;;0.40;0.40;;;10.70;99.90;;;;;;4985271;28;20068;-80
2024/02/02 10:39:14;;;;;;;0.70;0.50;;;10.80;99.90;;;;;;4981958;28;20065;-80
2024/02/02 10:41:54;;;;;;;0.68;0.52;;;11.00;99.90;;;;;;4985458;28;20064;-79
2024/02/02 10:44:43;;;;;;;0.68;0.52;;;11.10;1.00;;;;;;4983766;28;20487;-81
2024/02/02 10:47:42;;;;;;;2.38;1.10;;;11.20;1.00;;;;;;4999219;28;20124;-81
2024/02/02 10:50:15;;;;;;;0.70;0.50;;;11.30;1.00;;;;;;4973080;28;20472;-81
2024/02/02 10:52:57;;;;;;;1.30;0.80;;;11.40;99.90;;;;;;5002206;28;20066;-81
2024/02/02 10:55:50;;;;;;;0.65;0.60;;;11.50;99.90;;;;;;5005329;28;20090;-81
2024/02/02 10:58:24;;;;;;;2.10;1.10;;;11.50;99.90;;;;;;4983496;28;20053;-81
2024/02/02 11:01:00;;;;;;;0.73;0.60;;;11.50;99.90;;;;;;4967003;28;20060;-81
2024/02/02 11:03:39;;;;;;;1.00;0.90;;;11.50;99.90;;;;;;4955199;28;20492;-81
2024/02/02 11:06:22;;;;;;;1.08;0.80;;;11.50;99.90;;;;;;4968886;28;20515;-80
2024/02/02 11:08:55;;;;;;;0.68;0.55;;;11.50;99.90;;;;;;4984915;28;20447;-80
2024/02/02 11:11:25;;;;;;;0.60;0.60;;;11.60;99.90;;;;;;4952143;28;20802;-81
2024/02/02 11:13:59;;;;;;;1.15;0.90;;;11.80;99.90;;;;;;4951170;28;20050;-80
2024/02/02 11:16:47;;;;;;;1.33;0.80;;;11.90;99.90;;;;;;4984068;28;20056;-82
2024/02/02 11:20:00;;;;;;;0.73;0.60;;;11.90;99.90;;;;;;4956214;28;20050;-81
2024/02/02 11:22:30;;;;;;;0.70;0.70;;;12.10;99.90;;;;;;4923005;28;20085;-80
2024/02/02 11:25:04;;;;;;;0.50;0.50;;;12.20;99.90;;;;;;5001089;28;20092;-81
2024/02/02 11:28:13;;;;;;;0.60;0.60;;;12.20;99.90;;;;;;4951387;28;20054;-82
2024/02/02 11:30:51;;;;;;;0.90;0.63;;;12.30;99.90;;;;;;4904676;29;20051;-81
2024/02/02 11:33:37;;;;;;;0.82;0.70;;;12.50;99.90;;;;;;4883619;29;20063;-81
2024/02/02 11:36:34;;;;;;;0.68;0.43;;;12.60;99.90;;;;;;4947823;28;20649;-82
2024/02/02 11:39:19;;;;;;;0.50;0.50;;;12.70;99.90;;;;;;4983610;28;20065;-82
2024/02/02 11:41:46;;;;;;;1.20;0.60;;;12.80;99.90;;;;;;4982950;28;20053;-82
2024/02/02 11:44:13;;;;;;;1.08;0.52;;;12.80;99.90;;;;;;4984391;28;20049;-82
2024/02/02 11:46:41;;;;;;;0.60;0.47;;;12.80;99.90;;;;;;4986587;28;20068;-82
2024/02/02 11:49:09;;;;;;;0.73;0.52;;;12.80;99.90;;;;;;4969900;28;20062;-82
2024/02/02 11:51:37;;;;;;;0.45;0.45;;;12.70;99.90;;;;;;4985584;28;20077;-82
2024/02/02 11:54:26;;;;;;;0.80;0.50;;;12.70;99.90;;;;;;4968841;28;20145;-82
2024/02/02 11:56:54;;;;;;;0.90;0.52;;;12.90;99.90;;;;;;4986771;28;20049;-81
2024/02/02 11:59:31;;;;;;;2.58;0.75;;;12.80;99.90;;;;;;4985523;28;20462;-81
2024/02/02 12:02:17;;;;;;;1.08;0.60;;;12.90;99.90;;;;;;5001961;28;20507;-82
2024/02/02 12:04:55;;;;;;;1.83;0.90;;;12.90;99.90;;;;;;5002035;28;20050;-82
2024/02/02 12:07:28;;;;;;;1.55;0.50;;;12.90;99.90;;;;;;5000312;28;20072;-81
2024/02/02 12:10:04;;;;;;;1.13;0.68;;;12.90;99.90;;;;;;5002921;28;20816;-80
2024/02/02 12:12:37;;;;;;;0.65;0.50;;;12.90;99.90;;;;;;4985561;28;20150;-82
2024/02/02 12:15:05;;;;;;;0.73;0.45;;;12.80;99.90;;;;;;5002244;28;20054;-81
2024/02/02 12:17:32;;;;;;;0.60;0.50;;;12.80;99.90;;;;;;5001789;28;20080;-82
2024/02/02 12:19:59;;;;;;;0.30;0.30;;;12.80;99.90;;;;;;4969625;28;20387;-82
2024/02/02 12:22:29;;;;;;;0.57;0.40;;;12.80;99.90;;;;;;4983855;28;20081;-80
2024/02/02 12:24:56;;;;;;;0.50;0.50;;;12.80;99.90;;;;;;4982771;28;20076;-82
2024/02/02 12:27:23;;;;;;;0.80;0.52;;;12.80;99.90;;;;;;4998242;28;20054;-81
2024/02/02 12:29:50;;;;;;;0.55;0.30;;;12.80;99.90;;;;;;5001032;28;20054;-81
2024/02/02 12:32:17;;;;;;;0.50;0.50;;;13.00;99.90;;;;;;4999995;28;20104;-81
2024/02/02 12:34:45;;;;;;;0.68;0.50;;;13.20;99.90;;;;;;4954407;28;20084;-82
2024/02/02 12:37:12;;;;;;;0.47;0.47;;;13.40;92.90;;;;;;4970957;28;20234;-82
2024/02/02 12:39:39;;;;;;;0.50;0.47;;;13.60;71.80;;;;;;4988023;28;20081;-82
2024/02/02 12:42:06;;;;;;;0.50;0.40;;;13.70;65.00;;;;;;4973211;28;20046;-82
2024/02/02 12:44:33;;;;;;;0.30;0.30;;;13.90;55.50;;;;;;4956315;28;20715;-82
2024/02/02 12:47:04;;;;;;;0.73;0.60;;;14.10;49.70;;;;;;4986195;28;20052;-82
2024/02/02 12:49:31;;;;;;;0.45;0.45;;;14.30;44.80;;;;;;4986185;28;20046;-82
2024/02/02 12:52:00;;;;;;;0.85;0.60;;;14.40;37.40;;;;;;4955474;28;20053;-83
2024/02/02 12:54:27;;;;;;;1.10;0.63;;;14.40;35.20;;;;;;4955769;28;20443;-83
2024/02/02 12:56:54;;;;;;;0.47;0.32;;;14.30;29.30;;;;;;4956826;28;20046;-82
2024/02/02 12:59:23;;;;;;;0.68;0.40;;;14.40;26.80;;;;;;4956494;28;20538;-83
2024/02/02 13:01:50;;;;;;;0.30;0.30;;;14.40;27.00;;;;;;4973660;28;20056;-82
2024/02/02 13:04:17;;;;;;;0.57;0.57;;;14.50;25.80;;;;;;4988665;28;20100;-82
2024/02/02 13:06:45;;;;;;;0.70;0.55;;;14.50;23.40;;;;;;4956465;28;20503;-81
2024/02/02 13:09:31;;;;;;;0.50;0.40;;;14.60;19.90;;;;;;4955370;28;20914;-82
2024/02/02 13:12:06;;;;;;;0.50;0.47;;;14.70;22.80;;;;;;4973228;28;20137;-82
2024/02/02 13:14:36;;;;;;;0.75;0.55;;;14.80;22.40;;;;;;4974352;28;20049;-82